Time;durP1;ratioP1;P1;durP2;ratioP2;P2;SDS_P1;SDS_P2;PMS_P1;PMS_P2;Temp;Humidity;BMP_temperature;BMP_pressure;BME280_temperature;BME280_humidity;BME280_pressure;Samples;Min_cycle;Max_cycle;Signal;HPM_P1;HPM_P2
2024/01/22 04:01:02;;;;;;;3.50;2.70;;;20.40;23.20;;;;;;5938720;22;45378;-84
2024/01/22 04:03:28;;;;;;;3.33;3.00;;;20.40;23.20;;;;;;4993442;28;44894;-84
2024/01/22 04:05:54;;;;;;;3.55;3.00;;;20.40;23.20;;;;;;4994784;28;45672;-84
2024/01/22 04:08:20;;;;;;;3.50;2.77;;;20.40;23.20;;;;;;5002137;28;45186;-82
2024/01/22 04:10:46;;;;;;;2.95;2.47;;;20.40;23.20;;;;;;4986922;28;45563;-83
2024/01/22 04:13:13;;;;;;;3.60;2.73;;;20.30;23.20;;;;;;4964395;28;45199;-81
2024/01/22 04:15:38;;;;;;;3.50;2.65;;;20.30;23.20;;;;;;4972585;28;45094;-83
2024/01/22 04:18:05;;;;;;;3.67;2.60;;;20.30;23.20;;;;;;4955902;28;46163;-81
2024/01/22 04:20:31;;;;;;;3.78;2.78;;;20.30;23.20;;;;;;4940604;28;45011;-83
2024/01/22 04:22:56;;;;;;;3.60;2.90;;;20.30;23.20;;;;;;4958324;28;45353;-83
2024/01/22 04:25:22;;;;;;;3.70;2.63;;;20.30;23.20;;;;;;4961323;28;45165;-82
2024/01/22 04:27:48;;;;;;;3.10;2.80;;;20.30;23.20;;;;;;4988723;28;46621;-81
2024/01/22 04:30:14;;;;;;;2.80;2.50;;;20.30;23.20;;;;;;4985584;28;45223;-81
2024/01/22 04:32:39;;;;;;;3.40;2.80;;;20.30;23.20;;;;;;4962472;28;45591;-84
2024/01/22 04:35:05;;;;;;;3.72;2.80;;;20.30;23.20;;;;;;4979441;28;45732;-84
2024/01/22 04:37:31;;;;;;;3.53;2.63;;;20.30;23.20;;;;;;4971815;28;46360;-81
2024/01/22 04:40:11;;;;;;;2.83;2.40;;;20.30;23.30;;;;;;4977089;28;45257;-82
2024/01/22 04:42:37;;;;;;;3.28;2.70;;;20.30;23.30;;;;;;4967809;28;45367;-82
2024/01/22 04:45:06;;;;;;;3.40;2.70;;;20.20;23.30;;;;;;4978338;28;45054;-86
2024/01/22 04:47:34;;;;;;;3.13;2.60;;;20.20;23.20;;;;;;4960145;28;45422;-82
2024/01/22 04:50:01;;;;;;;3.03;2.45;;;20.20;23.30;;;;;;4971820;28;44906;-82
2024/01/22 04:52:26;;;;;;;3.03;2.30;;;20.20;23.30;;;;;;4992927;28;45545;-83
2024/01/22 04:54:52;;;;;;;3.13;2.63;;;20.20;23.30;;;;;;4955492;28;45333;-81
2024/01/22 04:57:19;;;;;;;2.87;2.30;;;20.30;23.40;;;;;;4968536;28;45693;-81
2024/01/22 04:59:45;;;;;;;3.88;2.55;;;20.20;23.30;;;;;;4970431;28;45233;-84
2024/01/22 05:02:11;;;;;;;5.55;2.53;;;20.10;23.30;;;;;;4980898;28;45424;-87
2024/01/22 05:04:37;;;;;;;3.13;2.63;;;20.20;23.30;;;;;;4957792;28;45562;-83
2024/01/22 05:07:03;;;;;;;3.25;2.53;;;20.20;23.30;;;;;;4966976;28;47484;-83
2024/01/22 05:09:29;;;;;;;3.20;2.53;;;20.10;23.30;;;;;;5009056;28;45306;-80
2024/01/22 05:11:54;;;;;;;2.60;2.33;;;20.10;23.30;;;;;;4969986;28;45719;-84
2024/01/22 05:14:21;;;;;;;2.65;2.45;;;20.10;23.30;;;;;;4960611;28;45130;-83
2024/01/22 05:16:47;;;;;;;3.60;2.33;;;20.10;23.40;;;;;;4964949;28;46219;-83
2024/01/22 05:19:13;;;;;;;2.83;2.35;;;20.10;23.40;;;;;;4972358;28;44876;-82
2024/01/22 05:21:38;;;;;;;2.72;2.35;;;20.10;23.40;;;;;;4972761;28;45226;-82
2024/01/22 05:24:06;;;;;;;3.33;2.30;;;20.10;23.40;;;;;;4955858;28;46039;-82
2024/01/22 05:26:32;;;;;;;2.88;2.25;;;20.10;23.40;;;;;;4966082;28;46360;-82
2024/01/22 05:28:58;;;;;;;3.00;2.23;;;20.10;23.40;;;;;;4973753;28;45183;-82
2024/01/22 05:31:24;;;;;;;2.97;2.42;;;20.10;23.40;;;;;;4950278;28;45634;-83
2024/01/22 05:33:49;;;;;;;2.30;2.00;;;20.10;23.40;;;;;;4954799;28;45434;-84
2024/01/22 05:36:15;;;;;;;2.83;2.40;;;20.10;23.40;;;;;;4966589;28;46132;-84
2024/01/22 05:38:41;;;;;;;3.13;2.15;;;20.00;23.40;;;;;;4991561;28;44948;-83
2024/01/22 05:41:07;;;;;;;2.70;2.33;;;20.10;23.50;;;;;;4967657;28;45426;-83
2024/01/22 05:43:33;;;;;;;2.80;2.20;;;20.00;23.40;;;;;;4989699;28;45670;-83
2024/01/22 05:45:59;;;;;;;2.70;2.30;;;20.00;23.50;;;;;;4967271;28;46218;-82
2024/01/22 05:48:26;;;;;;;2.57;2.17;;;20.00;23.50;;;;;;4959335;28;65086;-86
2024/01/22 05:50:52;;;;;;;2.38;2.10;;;20.00;23.50;;;;;;4968736;28;44959;-82
2024/01/22 05:53:18;;;;;;;2.35;2.10;;;20.00;23.50;;;;;;4965606;28;45481;-82
2024/01/22 05:55:44;;;;;;;2.43;2.00;;;20.00;23.50;;;;;;4993890;28;47276;-82
2024/01/22 05:58:10;;;;;;;2.45;2.10;;;20.00;23.50;;;;;;4957673;28;45517;-82
2024/01/22 06:00:39;;;;;;;3.38;2.40;;;20.00;23.50;;;;;;4949211;28;45490;-83
2024/01/22 06:03:04;;;;;;;3.00;2.20;;;20.00;23.50;;;;;;4986294;28;44973;-85
2024/01/22 06:05:30;;;;;;;3.00;2.08;;;19.90;23.50;;;;;;4955203;28;47171;-83
2024/01/22 06:07:56;;;;;;;2.40;2.20;;;19.90;23.60;;;;;;4968557;28;45356;-82
2024/01/22 06:10:22;;;;;;;2.88;2.15;;;19.90;23.60;;;;;;4983753;28;44887;-82
2024/01/22 06:12:48;;;;;;;2.58;2.17;;;19.90;23.60;;;;;;4971286;28;44950;-82
2024/01/22 06:15:14;;;;;;;2.58;2.10;;;19.90;23.60;;;;;;4969220;28;47040;-82
2024/01/22 06:17:39;;;;;;;2.60;2.08;;;19.90;23.60;;;;;;4948684;28;44830;-85
2024/01/22 06:20:06;;;;;;;2.15;1.90;;;19.90;23.70;;;;;;4973506;28;45355;-82
2024/01/22 06:22:33;;;;;;;2.42;1.90;;;19.90;23.60;;;;;;4956267;28;45170;-81
2024/01/22 06:25:00;;;;;;;2.35;2.10;;;19.90;23.70;;;;;;4969206;28;46000;-83
2024/01/22 06:27:25;;;;;;;2.72;1.90;;;19.90;23.70;;;;;;4981304;28;45485;-82
2024/01/22 06:29:56;;;;;;;2.60;1.97;;;19.90;23.70;;;;;;4959170;28;45213;-83
2024/01/22 06:32:22;;;;;;;2.53;2.08;;;19.80;23.70;;;;;;4963935;28;45499;-83
2024/01/22 06:34:48;;;;;;;2.70;2.10;;;19.80;23.70;;;;;;4982866;28;45479;-84
2024/01/22 06:37:15;;;;;;;2.42;1.77;;;19.80;23.80;;;;;;4950764;28;45542;-81
2024/01/22 06:39:41;;;;;;;2.65;2.03;;;19.80;23.80;;;;;;4977973;28;45415;-82
2024/01/22 06:42:07;;;;;;;2.50;2.10;;;19.80;23.90;;;;;;4962104;28;46347;-82
2024/01/22 06:44:32;;;;;;;2.22;1.90;;;19.70;23.80;;;;;;4955366;28;45469;-83
2024/01/22 06:46:58;;;;;;;2.67;2.00;;;19.70;23.80;;;;;;4937270;28;45533;-84
2024/01/22 06:49:24;;;;;;;3.40;2.10;;;19.70;23.80;;;;;;4958477;28;45394;-82
2024/01/22 06:51:49;;;;;;;2.57;2.13;;;19.80;23.90;;;;;;4974349;28;44871;-82
2024/01/22 06:54:16;;;;;;;3.57;2.10;;;19.80;23.90;;;;;;4958140;28;47268;-83
2024/01/22 06:56:41;;;;;;;2.65;1.95;;;19.80;23.90;;;;;;4966877;28;45289;-81
2024/01/22 06:59:07;;;;;;;2.77;2.03;;;19.80;24.00;;;;;;4964104;28;44935;-82
2024/01/22 07:01:34;;;;;;;2.15;1.75;;;19.80;24.00;;;;;;4952437;28;44991;-83
2024/01/22 07:04:00;;;;;;;2.37;2.00;;;19.80;24.00;;;;;;5010856;28;45989;-83
2024/01/22 07:06:29;;;;;;;3.20;2.20;;;19.80;24.00;;;;;;4987340;28;45310;-83
2024/01/22 07:08:55;;;;;;;2.78;2.05;;;19.80;24.00;;;;;;4976538;28;45157;-82
2024/01/22 07:11:21;;;;;;;2.78;1.90;;;19.80;24.10;;;;;;4942823;28;45461;-83
2024/01/22 07:13:48;;;;;;;2.00;1.80;;;19.80;24.10;;;;;;4962484;28;47337;-83
2024/01/22 07:16:14;;;;;;;2.23;1.97;;;19.80;24.10;;;;;;4946889;28;45243;-81
2024/01/22 07:18:41;;;;;;;2.35;1.83;;;19.80;24.10;;;;;;4957043;28;45751;-81
2024/01/22 07:21:07;;;;;;;2.22;1.80;;;19.90;24.60;;;;;;5002789;28;46390;-82
2024/01/22 07:23:33;;;;;;;2.67;1.90;;;19.90;24.20;;;;;;4954214;28;45995;-84
2024/01/22 07:25:59;;;;;;;2.78;1.98;;;19.90;24.20;;;;;;4976270;28;45554;-82
2024/01/22 07:28:25;;;;;;;2.55;1.98;;;19.90;24.20;;;;;;4991883;28;44936;-82
2024/01/22 07:30:51;;;;;;;3.17;2.08;;;19.90;24.20;;;;;;4958310;28;45209;-82
2024/01/22 07:33:17;;;;;;;3.58;2.10;;;19.90;24.20;;;;;;4965278;28;46533;-83
2024/01/22 07:35:42;;;;;;;2.60;2.00;;;19.90;24.30;;;;;;4963304;28;45284;-84
2024/01/22 07:38:08;;;;;;;3.33;2.30;;;19.90;24.30;;;;;;4949092;28;44962;-84
2024/01/22 07:40:34;;;;;;;2.67;2.00;;;19.90;24.30;;;;;;4976308;28;45913;-83
2024/01/22 07:43:00;;;;;;;2.70;2.00;;;19.90;24.30;;;;;;4954203;28;48085;-83
2024/01/22 07:45:28;;;;;;;3.30;2.20;;;19.90;24.80;;;;;;4968307;28;45505;-84
2024/01/22 07:47:54;;;;;;;4.32;2.15;;;20.00;24.30;;;;;;4976391;28;44696;-83
2024/01/22 07:50:20;;;;;;;2.80;2.13;;;20.00;24.30;;;;;;4970806;28;45516;-82
2024/01/22 07:52:46;;;;;;;4.50;2.10;;;20.00;24.30;;;;;;4979464;28;46383;-84
2024/01/22 07:55:17;;;;;;;2.58;2.00;;;20.10;24.40;;;;;;4955188;28;45453;-81
2024/01/22 07:57:46;;;;;;;3.05;2.33;;;20.10;24.40;;;;;;4988780;28;45521;-82
2024/01/22 08:00:13;;;;;;;3.10;2.00;;;20.10;24.30;;;;;;4960063;28;45343;-82
2024/01/22 08:02:39;;;;;;;3.30;2.22;;;20.00;24.30;;;;;;4946006;28;45321;-82
2024/01/22 08:05:06;;;;;;;2.60;2.00;;;20.10;24.30;;;;;;4977812;28;44705;-86
2024/01/22 08:07:33;;;;;;;2.95;2.17;;;20.10;24.40;;;;;;4956832;28;45524;-82
2024/01/22 08:09:59;;;;;;;2.60;1.90;;;20.20;24.40;;;;;;4961964;28;44903;-81
2024/01/22 08:12:24;;;;;;;2.50;2.05;;;20.20;24.40;;;;;;4957447;28;47376;-84
2024/01/22 08:14:50;;;;;;;2.83;1.90;;;20.20;24.40;;;;;;4958120;28;45490;-82
2024/01/22 08:17:16;;;;;;;2.92;2.08;;;20.20;24.60;;;;;;4982109;28;45355;-81
2024/01/22 08:19:42;;;;;;;3.60;2.10;;;20.20;24.60;;;;;;4954170;28;45664;-82
2024/01/22 08:22:09;;;;;;;2.58;1.90;;;20.30;24.40;;;;;;4986998;28;45991;-82
2024/01/22 08:24:35;;;;;;;2.38;1.80;;;20.30;24.40;;;;;;4973331;28;45557;-84
2024/01/22 08:27:01;;;;;;;2.72;1.90;;;20.30;24.40;;;;;;4968527;28;45179;-84
2024/01/22 08:29:27;;;;;;;2.70;1.90;;;20.30;24.40;;;;;;4971439;28;45235;-83
2024/01/22 08:31:53;;;;;;;3.08;2.30;;;20.30;24.40;;;;;;4947568;28;45639;-81
2024/01/22 08:34:20;;;;;;;2.25;1.80;;;20.40;24.40;;;;;;4973931;28;44948;-81
2024/01/22 08:36:46;;;;;;;2.40;1.60;;;20.40;24.40;;;;;;4967066;28;45565;-84
2024/01/22 08:39:11;;;;;;;3.33;1.88;;;20.40;24.40;;;;;;4988833;28;45541;-83
2024/01/22 08:41:37;;;;;;;3.03;2.07;;;20.40;24.40;;;;;;4940534;28;46453;-82
2024/01/22 08:44:05;;;;;;;2.60;1.75;;;20.50;24.40;;;;;;4953239;28;45361;-82
2024/01/22 08:46:31;;;;;;;2.80;1.88;;;20.50;24.40;;;;;;4940233;28;45256;-82
2024/01/22 08:48:57;;;;;;;2.78;1.77;;;20.50;24.40;;;;;;4971982;28;45388;-82
2024/01/22 08:51:23;;;;;;;2.95;1.70;;;20.50;24.40;;;;;;4968212;28;45551;-81
2024/01/22 08:53:49;;;;;;;2.30;1.58;;;20.60;24.50;;;;;;4974313;28;45479;-83
2024/01/22 08:56:15;;;;;;;1.88;1.63;;;20.70;24.50;;;;;;4963506;28;45155;-82
2024/01/22 08:58:41;;;;;;;2.53;1.70;;;20.70;24.60;;;;;;4965594;28;45549;-83
2024/01/22 09:01:08;;;;;;;3.60;1.90;;;20.70;24.40;;;;;;4962288;28;45668;-82
2024/01/22 09:03:34;;;;;;;3.00;1.90;;;20.70;24.40;;;;;;4957165;28;44779;-82
2024/01/22 09:06:03;;;;;;;2.83;1.70;;;20.80;24.50;;;;;;4958412;28;45586;-82
2024/01/22 09:08:34;;;;;;;2.75;1.58;;;20.80;24.50;;;;;;4945958;28;44870;-84
2024/01/22 09:11:00;;;;;;;2.65;1.83;;;20.80;24.50;;;;;;4970003;28;46503;-83
2024/01/22 09:13:27;;;;;;;2.08;1.55;;;20.80;24.50;;;;;;4977358;28;45603;-84
2024/01/22 09:15:53;;;;;;;2.13;1.70;;;20.90;24.50;;;;;;4936871;28;45454;-81
2024/01/22 09:18:19;;;;;;;2.33;1.60;;;20.90;24.50;;;;;;4971676;28;45512;-82
2024/01/22 09:20:44;;;;;;;3.67;1.40;;;20.90;24.50;;;;;;4951458;28;46669;-83
2024/01/22 09:23:10;;;;;;;2.37;1.70;;;20.90;24.50;;;;;;4971166;28;45667;-81
2024/01/22 09:25:37;;;;;;;1.90;1.42;;;21.00;24.50;;;;;;4970561;28;45120;-82
2024/01/22 09:28:04;;;;;;;2.50;1.58;;;21.00;24.50;;;;;;4975137;28;44921;-84
2024/01/22 09:30:30;;;;;;;1.95;1.50;;;21.00;24.50;;;;;;4964603;28;46539;-82
2024/01/22 09:32:58;;;;;;;2.22;1.52;;;21.10;24.50;;;;;;4976476;28;44978;-82
2024/01/22 09:35:24;;;;;;;2.47;1.52;;;21.10;24.40;;;;;;4982204;28;45444;-83
2024/01/22 09:37:50;;;;;;;1.85;1.48;;;21.10;24.40;;;;;;4968593;28;44868;-82
2024/01/22 09:40:15;;;;;;;2.03;1.38;;;21.10;24.40;;;;;;4968942;28;45582;-83
2024/01/22 09:42:41;;;;;;;2.00;1.60;;;21.20;24.40;;;;;;4988981;28;44833;-83
2024/01/22 09:45:09;;;;;;;2.27;1.40;;;21.20;24.40;;;;;;4944049;28;45555;-85
2024/01/22 09:47:38;;;;;;;2.45;1.40;;;21.20;24.30;;;;;;4955094;28;45603;-84
2024/01/22 09:50:04;;;;;;;2.08;1.40;;;21.30;24.30;;;;;;4957785;28;47163;-83
2024/01/22 09:52:31;;;;;;;1.38;1.10;;;21.30;24.30;;;;;;4956567;28;45568;-83
2024/01/22 09:54:58;;;;;;;1.80;1.40;;;21.30;24.30;;;;;;4976966;28;45478;-83
2024/01/22 09:57:27;;;;;;;1.98;1.23;;;21.30;24.20;;;;;;4986627;28;45412;-84
2024/01/22 09:59:53;;;;;;;2.13;1.60;;;21.30;24.20;;;;;;4976870;28;46138;-82
2024/01/22 10:02:19;;;;;;;1.60;1.30;;;21.30;24.20;;;;;;4948006;28;45394;-82
2024/01/22 10:04:45;;;;;;;2.20;1.60;;;21.40;24.20;;;;;;4961107;28;45511;-82
2024/01/22 10:07:14;;;;;;;2.10;1.50;;;21.40;24.20;;;;;;4958940;28;45514;-82
2024/01/22 10:09:41;;;;;;;2.15;1.45;;;21.40;24.20;;;;;;4957984;28;46899;-84
2024/01/22 10:12:06;;;;;;;2.00;1.30;;;21.50;24.20;;;;;;4982014;28;45379;-82
2024/01/22 10:14:37;;;;;;;1.65;1.30;;;21.50;24.20;;;;;;4977653;28;45446;-83
2024/01/22 10:17:20;;;;;;;1.73;1.35;;;21.50;24.20;;;;;;4952616;28;45142;-83
2024/01/22 10:19:49;;;;;;;2.00;1.27;;;21.50;24.20;;;;;;4957896;28;45359;-82
2024/01/22 10:22:24;;;;;;;1.60;1.30;;;21.50;24.10;;;;;;4947169;28;45568;-82
2024/01/22 10:24:59;;;;;;;1.80;1.30;;;21.50;24.10;;;;;;4945098;28;45692;-83
2024/01/22 10:27:25;;;;;;;2.37;1.33;;;21.50;24.10;;;;;;4972875;28;45408;-83
2024/01/22 10:29:51;;;;;;;1.92;1.52;;;21.50;24.10;;;;;;4956703;28;47621;-84
2024/01/22 10:32:21;;;;;;;2.40;1.47;;;21.60;24.20;;;;;;4961923;28;45304;-83
2024/01/22 10:34:50;;;;;;;1.77;1.60;;;21.60;24.20;;;;;;4973257;28;45356;-82
2024/01/22 10:37:16;;;;;;;2.30;1.63;;;21.60;24.20;;;;;;4959698;28;45711;-83
2024/01/22 10:39:43;;;;;;;2.15;1.42;;;21.60;24.20;;;;;;4943578;28;46310;-81
2024/01/22 10:42:16;;;;;;;1.48;1.15;;;21.70;24.20;;;;;;4957979;28;45483;-82
2024/01/22 10:44:43;;;;;;;2.25;1.27;;;21.60;24.20;;;;;;4987724;28;45467;-83
2024/01/22 10:47:11;;;;;;;1.27;1.17;;;21.70;24.20;;;;;;4960248;28;45346;-82
2024/01/22 10:49:37;;;;;;;1.95;1.40;;;21.70;24.20;;;;;;4972652;28;47109;-82
2024/01/22 10:52:03;;;;;;;1.40;1.23;;;21.60;24.20;;;;;;4953074;28;44953;-82
2024/01/22 10:54:30;;;;;;;1.52;1.30;;;21.60;24.20;;;;;;4968386;28;45035;-82
2024/01/22 10:57:04;;;;;;;1.83;1.30;;;21.60;24.20;;;;;;4961431;28;45533;-85
2024/01/22 10:59:38;;;;;;;1.80;1.20;;;21.70;24.20;;;;;;4969814;28;45911;-82
2024/01/22 11:02:37;;;;;;;2.42;1.20;;;21.60;24.20;;;;;;4947095;28;45069;-84
2024/01/22 11:05:29;;;;;;;2.22;1.40;;;21.70;24.30;;;;;;4936584;28;45361;-85
2024/01/22 11:07:55;;;;;;;1.83;1.25;;;21.70;24.30;;;;;;4968355;28;45030;-82
2024/01/22 11:10:20;;;;;;;2.20;1.20;;;21.60;24.30;;;;;;4969225;28;46439;-83
2024/01/22 11:12:48;;;;;;;2.10;1.42;;;21.70;24.40;;;;;;4958513;28;44858;-83
2024/01/22 11:15:15;;;;;;;1.73;1.20;;;21.60;24.30;;;;;;4956589;28;45346;-83
2024/01/22 11:17:40;;;;;;;1.38;0.90;;;21.70;24.40;;;;;;4970952;28;45148;-84
2024/01/22 11:20:21;;;;;;;2.00;1.10;;;21.70;24.40;;;;;;4959801;28;45893;-83
2024/01/22 11:23:04;;;;;;;1.38;1.25;;;21.70;24.50;;;;;;4968894;28;44915;-83
2024/01/22 11:25:33;;;;;;;2.17;1.48;;;21.70;24.50;;;;;;4949734;28;45796;-82
2024/01/22 11:28:07;;;;;;;1.30;1.20;;;21.70;24.50;;;;;;4975704;28;44889;-82
2024/01/22 11:30:35;;;;;;;1.20;1.00;;;21.70;24.60;;;;;;4965057;28;45638;-82
2024/01/22 11:33:01;;;;;;;1.65;1.10;;;21.70;24.60;;;;;;4970313;28;45085;-82
2024/01/22 11:35:37;;;;;;;1.50;1.20;;;21.70;24.60;;;;;;4967657;28;45453;-85
2024/01/22 11:38:09;;;;;;;1.52;1.17;;;21.70;24.60;;;;;;4957316;28;45739;-82
2024/01/22 11:40:52;;;;;;;1.23;0.98;;;21.70;24.60;;;;;;4953707;28;45899;-82
2024/01/22 11:43:23;;;;;;;1.48;1.08;;;21.70;24.60;;;;;;4960285;28;45469;-83
2024/01/22 11:45:51;;;;;;;1.83;1.05;;;21.70;24.60;;;;;;4953725;28;45721;-82
2024/01/22 11:48:27;;;;;;;1.47;1.10;;;21.70;24.70;;;;;;4957890;28;45200;-81
2024/01/22 11:51:23;;;;;;;2.20;1.23;;;21.70;24.70;;;;;;4984260;28;46448;-82
2024/01/22 11:53:53;;;;;;;1.52;1.00;;;21.70;24.70;;;;;;4966188;28;45482;-83
2024/01/22 11:56:19;;;;;;;1.07;0.87;;;21.80;24.70;;;;;;4941061;28;45392;-84
2024/01/22 11:58:45;;;;;;;1.53;1.17;;;21.80;24.80;;;;;;4958202;28;45051;-84
2024/01/22 12:01:11;;;;;;;1.77;1.10;;;21.70;24.70;;;;;;4932337;28;46174;-84
2024/01/22 12:03:37;;;;;;;1.63;1.07;;;21.80;24.80;;;;;;4958375;28;45548;-83
2024/01/22 12:06:07;;;;;;;1.60;1.20;;;21.70;24.70;;;;;;4971029;28;45748;-83
2024/01/22 12:08:33;;;;;;;1.77;1.08;;;21.80;24.90;;;;;;4962358;28;45603;-83
2024/01/22 12:11:14;;;;;;;1.20;1.03;;;21.80;24.80;;;;;;4944595;28;47251;-83
2024/01/22 12:13:41;;;;;;;1.55;1.10;;;21.80;24.90;;;;;;4977408;28;45030;-84
2024/01/22 12:16:17;;;;;;;1.70;1.20;;;21.80;24.90;;;;;;4956678;28;44968;-83
2024/01/22 12:18:43;;;;;;;1.65;1.00;;;21.80;24.90;;;;;;4979401;28;45797;-85
2024/01/22 12:21:10;;;;;;;1.60;1.10;;;21.80;24.90;;;;;;4964311;28;46136;-84
2024/01/22 12:23:36;;;;;;;2.13;1.00;;;21.80;24.90;;;;;;4971220;28;45344;-84
2024/01/22 12:26:02;;;;;;;1.45;1.10;;;21.80;24.90;;;;;;4953669;28;45222;-82
2024/01/22 12:28:28;;;;;;;1.55;1.05;;;21.80;24.90;;;;;;4993952;28;45312;-83
2024/01/22 12:31:02;;;;;;;1.27;1.05;;;21.70;24.90;;;;;;4970715;28;45801;-83
2024/01/22 12:33:30;;;;;;;1.08;0.93;;;21.80;24.90;;;;;;4996940;28;45325;-86
2024/01/22 12:36:08;;;;;;;1.85;0.90;;;21.80;24.90;;;;;;4956569;28;45539;-83
2024/01/22 12:38:36;;;;;;;1.60;1.00;;;21.80;24.90;;;;;;4981865;28;45221;-83
2024/01/22 12:41:08;;;;;;;1.25;1.10;;;21.70;24.90;;;;;;4976023;28;45334;-84
2024/01/22 12:43:36;;;;;;;1.35;1.20;;;21.80;25.00;;;;;;4977916;28;45237;-82
2024/01/22 12:46:15;;;;;;;1.93;1.10;;;21.80;25.00;;;;;;4971682;28;45321;-82
2024/01/22 12:48:44;;;;;;;1.30;1.00;;;21.80;25.00;;;;;;4958502;28;44992;-82
2024/01/22 12:51:09;;;;;;;1.50;1.10;;;21.80;25.00;;;;;;4960380;28;45489;-82
2024/01/22 12:53:35;;;;;;;1.85;1.10;;;21.80;25.00;;;;;;4990497;28;44682;-81
2024/01/22 12:56:03;;;;;;;2.00;1.33;;;21.80;25.00;;;;;;4969780;28;45127;-83
2024/01/22 12:58:29;;;;;;;2.20;1.02;;;21.80;25.00;;;;;;4959768;28;45617;-82
2024/01/22 13:00:56;;;;;;;1.40;1.25;;;21.80;25.00;;;;;;4938387;28;46076;-84
2024/01/22 13:03:22;;;;;;;1.53;1.03;;;21.70;25.00;;;;;;4973053;28;44773;-82
2024/01/22 13:05:48;;;;;;;1.40;1.10;;;21.80;25.10;;;;;;4988969;28;45359;-83
2024/01/22 13:08:14;;;;;;;1.40;1.03;;;21.80;25.10;;;;;;4964547;28;44769;-82
2024/01/22 13:10:41;;;;;;;1.63;1.00;;;21.80;25.10;;;;;;4958964;28;46516;-83
2024/01/22 13:13:07;;;;;;;1.10;1.00;;;21.80;25.10;;;;;;4957755;28;45214;-82
2024/01/22 13:15:33;;;;;;;1.38;1.20;;;21.80;25.10;;;;;;4961666;28;44883;-83
2024/01/22 13:18:00;;;;;;;1.30;1.20;;;21.80;25.10;;;;;;4975634;28;45229;-82
2024/01/22 13:20:27;;;;;;;1.50;1.10;;;21.70;25.10;;;;;;4969177;28;46417;-82
2024/01/22 13:22:53;;;;;;;2.05;1.20;;;21.80;25.10;;;;;;4974792;28;45402;-82
2024/01/22 13:25:21;;;;;;;2.00;1.20;;;21.70;25.10;;;;;;4986660;28;45156;-85
2024/01/22 13:27:49;;;;;;;1.52;1.00;;;21.70;25.10;;;;;;4990420;28;45855;-82
2024/01/22 13:30:17;;;;;;;1.70;1.17;;;21.80;25.10;;;;;;4956633;28;46018;-83
2024/01/22 13:32:43;;;;;;;2.60;1.10;;;21.70;25.10;;;;;;4961107;28;45418;-82
2024/01/22 13:35:10;;;;;;;2.10;1.17;;;21.70;25.10;;;;;;4958220;28;45604;-87
2024/01/22 13:37:38;;;;;;;1.47;1.10;;;21.80;25.20;;;;;;4976262;28;45109;-82
2024/01/22 13:40:11;;;;;;;1.38;0.95;;;21.70;25.10;;;;;;4955376;28;46365;-85
2024/01/22 13:42:38;;;;;;;1.73;1.20;;;21.70;25.20;;;;;;4959316;28;45317;-83
2024/01/22 13:45:09;;;;;;;1.50;1.20;;;21.70;25.20;;;;;;4994851;28;45829;-87
2024/01/22 13:47:37;;;;;;;1.73;1.30;;;21.70;25.20;;;;;;4946642;28;45301;-83
2024/01/22 13:50:07;;;;;;;1.50;1.20;;;21.70;25.20;;;;;;4987935;28;46954;-85
2024/01/22 13:52:34;;;;;;;1.85;1.38;;;21.70;25.20;;;;;;4940220;28;44917;-82
2024/01/22 13:55:00;;;;;;;1.87;1.20;;;21.70;25.20;;;;;;4976176;28;44996;-82
2024/01/22 13:57:25;;;;;;;1.70;1.20;;;21.70;25.20;;;;;;4956559;28;45408;-82
2024/01/22 13:59:52;;;;;;;1.77;1.23;;;21.60;25.20;;;;;;4976527;28;46065;-84
2024/01/22 14:02:18;;;;;;;1.63;1.15;;;21.70;25.30;;;;;;4982436;28;45214;-82
2024/01/22 14:04:45;;;;;;;1.50;1.10;;;21.70;25.30;;;;;;4977115;28;45828;-82
2024/01/22 14:07:12;;;;;;;1.40;1.30;;;21.70;25.30;;;;;;4953840;28;46144;-83
2024/01/22 14:09:38;;;;;;;2.03;1.40;;;21.70;25.30;;;;;;4940103;28;47201;-82
2024/01/22 14:12:04;;;;;;;1.50;1.40;;;21.70;25.30;;;;;;4949369;28;45179;-85
2024/01/22 14:14:30;;;;;;;1.50;1.13;;;21.70;25.30;;;;;;4953552;28;45044;-83
2024/01/22 14:16:56;;;;;;;1.77;1.15;;;21.70;25.30;;;;;;4935531;28;44855;-82
2024/01/22 14:19:22;;;;;;;1.60;1.30;;;21.70;25.30;;;;;;4942274;28;46269;-83
2024/01/22 14:21:47;;;;;;;1.45;1.17;;;21.70;25.30;;;;;;4935981;28;45260;-82
2024/01/22 14:24:14;;;;;;;1.30;1.20;;;21.70;25.30;;;;;;4936179;28;45332;-82
2024/01/22 14:26:40;;;;;;;1.80;1.40;;;21.70;25.30;;;;;;4954861;28;45475;-83
2024/01/22 14:29:08;;;;;;;1.80;1.30;;;21.70;25.30;;;;;;4942210;28;46478;-82
2024/01/22 14:31:34;;;;;;;2.28;1.30;;;21.60;25.30;;;;;;4952415;28;44990;-83
2024/01/22 14:34:00;;;;;;;1.67;1.30;;;21.70;25.30;;;;;;4959417;28;44711;-82
2024/01/22 14:36:26;;;;;;;2.38;1.58;;;21.60;25.30;;;;;;4956432;28;45226;-83
2024/01/22 14:38:52;;;;;;;1.70;1.35;;;21.70;25.40;;;;;;4944844;28;46087;-82
2024/01/22 14:41:19;;;;;;;1.63;1.40;;;21.70;25.40;;;;;;4967324;28;45453;-83
2024/01/22 14:43:47;;;;;;;2.05;1.52;;;21.60;25.40;;;;;;4940724;28;44793;-82
2024/01/22 14:46:15;;;;;;;1.83;1.33;;;21.60;25.40;;;;;;4948102;28;45151;-83
2024/01/22 14:48:41;;;;;;;2.17;1.40;;;21.60;25.40;;;;;;4930965;28;46283;-82
2024/01/22 14:51:07;;;;;;;1.58;1.40;;;21.60;25.40;;;;;;4956543;28;44853;-82
2024/01/22 14:53:33;;;;;;;1.40;1.30;;;21.60;25.50;;;;;;4960412;28;44993;-82
2024/01/22 14:56:00;;;;;;;2.13;1.43;;;21.60;25.50;;;;;;4952420;28;45492;-82
2024/01/22 14:58:26;;;;;;;1.60;1.42;;;21.70;25.50;;;;;;4956391;28;47908;-84
2024/01/22 15:00:53;;;;;;;1.60;1.33;;;21.60;25.50;;;;;;4935739;28;45220;-84
2024/01/22 15:03:20;;;;;;;1.80;1.40;;;21.60;25.50;;;;;;4961602;28;45098;-84
2024/01/22 15:05:46;;;;;;;1.47;1.37;;;21.60;25.50;;;;;;4940146;28;45793;-84
2024/01/22 15:08:12;;;;;;;1.77;1.60;;;21.60;25.50;;;;;;4972826;28;46283;-82
2024/01/22 15:10:39;;;;;;;1.90;1.42;;;21.60;25.50;;;;;;4956459;28;44676;-82
2024/01/22 15:13:04;;;;;;;1.80;1.50;;;21.60;25.60;;;;;;4974444;28;44704;-82
2024/01/22 15:15:31;;;;;;;1.50;1.40;;;21.60;25.60;;;;;;4948272;28;44762;-82
2024/01/22 15:17:57;;;;;;;1.60;1.50;;;21.60;25.60;;;;;;4968904;28;46713;-83
2024/01/22 15:20:24;;;;;;;1.67;1.30;;;21.60;25.60;;;;;;4951627;28;44691;-84
2024/01/22 15:22:49;;;;;;;3.23;1.57;;;21.60;25.60;;;;;;4965249;28;45055;-82
2024/01/22 15:25:15;;;;;;;1.67;1.37;;;21.60;25.60;;;;;;4965987;28;45576;-83
2024/01/22 15:27:41;;;;;;;1.67;1.48;;;21.60;25.60;;;;;;4938159;28;47479;-84
2024/01/22 15:30:11;;;;;;;1.75;1.30;;;21.60;25.60;;;;;;4968299;28;44873;-85
2024/01/22 15:32:36;;;;;;;1.75;1.40;;;21.60;25.60;;;;;;4926633;28;45379;-83
2024/01/22 15:35:06;;;;;;;1.80;1.70;;;21.60;25.60;;;;;;4944285;28;45008;-85
2024/01/22 15:37:32;;;;;;;1.55;1.40;;;21.60;25.70;;;;;;4970083;28;47464;-82
2024/01/22 15:39:59;;;;;;;1.95;1.50;;;21.60;25.70;;;;;;4988985;28;44950;-83
2024/01/22 15:42:25;;;;;;;1.65;1.40;;;21.60;25.70;;;;;;4983965;28;45043;-82
2024/01/22 15:44:51;;;;;;;1.63;1.35;;;21.50;25.70;;;;;;4976107;28;45097;-84
2024/01/22 15:47:19;;;;;;;1.80;1.50;;;21.50;25.70;;;;;;4939495;28;45962;-83
2024/01/22 15:49:45;;;;;;;1.70;1.55;;;21.60;25.70;;;;;;4972720;28;44763;-82
2024/01/22 15:52:11;;;;;;;2.05;1.48;;;21.50;25.70;;;;;;4956526;28;45163;-82
2024/01/22 15:54:40;;;;;;;1.73;1.30;;;21.50;25.70;;;;;;4940585;28;44800;-82
2024/01/22 15:57:07;;;;;;;1.50;1.40;;;21.50;25.70;;;;;;4946297;28;46298;-83
2024/01/22 15:59:32;;;;;;;1.50;1.30;;;21.50;25.70;;;;;;4954742;28;45257;-84
2024/01/22 16:01:58;;;;;;;2.20;1.70;;;21.50;25.70;;;;;;4955934;28;45317;-83
2024/01/22 16:04:24;;;;;;;2.08;1.60;;;21.50;25.70;;;;;;5009659;28;44951;-82
2024/01/22 16:06:51;;;;;;;2.30;1.60;;;21.50;25.80;;;;;;4977293;28;46439;-83
2024/01/22 16:09:17;;;;;;;1.90;1.58;;;21.50;25.80;;;;;;4981114;28;45293;-83
2024/01/22 16:11:43;;;;;;;1.67;1.50;;;21.50;25.80;;;;;;4974352;28;46410;-82
2024/01/22 16:14:09;;;;;;;1.95;1.48;;;21.50;25.80;;;;;;4976709;28;46473;-83
2024/01/22 16:16:36;;;;;;;2.67;1.83;;;21.50;25.80;;;;;;4973279;28;47376;-82
2024/01/22 16:19:03;;;;;;;1.77;1.63;;;21.50;25.80;;;;;;4964330;28;44810;-83
2024/01/22 16:21:29;;;;;;;1.88;1.60;;;21.50;25.80;;;;;;4977595;28;44798;-82
2024/01/22 16:23:54;;;;;;;1.70;1.60;;;21.50;25.80;;;;;;4974519;28;45159;-84
2024/01/22 16:26:21;;;;;;;2.20;1.50;;;21.50;25.80;;;;;;4957863;28;45528;-82
2024/01/22 16:28:47;;;;;;;2.17;1.70;;;21.50;25.90;;;;;;4977675;28;44834;-84
2024/01/22 16:31:13;;;;;;;1.80;1.50;;;21.40;25.90;;;;;;4953681;28;44801;-82
2024/01/22 16:33:39;;;;;;;1.90;1.70;;;21.50;25.90;;;;;;4992894;28;45190;-85
2024/01/22 16:36:06;;;;;;;1.70;1.60;;;21.40;25.90;;;;;;4974841;28;47416;-83
2024/01/22 16:38:32;;;;;;;2.30;1.80;;;21.40;25.90;;;;;;4959919;28;45278;-83
2024/01/22 16:40:58;;;;;;;2.00;1.77;;;21.40;25.90;;;;;;4960062;28;45938;-83
2024/01/22 16:43:24;;;;;;;2.75;1.80;;;21.50;26.00;;;;;;4976945;28;44685;-84
2024/01/22 16:45:50;;;;;;;2.28;1.58;;;21.40;25.90;;;;;;4969274;28;46175;-83
2024/01/22 16:48:17;;;;;;;2.03;1.80;;;21.50;26.00;;;;;;4952472;28;45607;-85